createdAt,value
2023-02-11T00:01:36.218Z,7.20
2023-02-11T00:04:07.917Z,7.20
2023-02-11T00:06:35.978Z,7.10
2023-02-11T00:09:09.036Z,7.10
2023-02-11T00:11:38.288Z,7.30
2023-02-11T00:14:09.954Z,7.30
2023-02-11T00:16:36.723Z,7.30
2023-02-11T00:19:08.587Z,7.30
2023-02-11T00:21:37.778Z,7.20
2023-02-11T00:24:07.090Z,7.20
2023-02-11T00:26:37.599Z,7.20
2023-02-11T00:29:07.514Z,7.10
2023-02-11T00:31:39.089Z,7.10
2023-02-11T00:34:05.812Z,7.10
2023-02-11T00:36:32.578Z,7.00
2023-02-11T00:39:02.109Z,7.00
2023-02-11T00:41:29.664Z,6.90
2023-02-11T00:43:58.695Z,6.90
2023-02-11T00:46:27.599Z,6.90
2023-02-11T00:48:57.898Z,6.70
2023-02-11T00:51:30.367Z,6.60
2023-02-11T00:53:59.542Z,6.60
2023-02-11T00:56:26.781Z,6.60
2023-02-11T00:58:55.862Z,6.60
2023-02-11T01:01:22.983Z,6.50
2023-02-11T01:03:54.403Z,6.40
2023-02-11T01:06:21.252Z,6.40
2023-02-11T01:08:47.920Z,6.20
2023-02-11T01:11:20.700Z,6.30
2023-02-11T01:13:49.171Z,6.10
2023-02-11T01:16:19.490Z,6.10
2023-02-11T01:18:46.987Z,6.10
2023-02-11T01:21:18.569Z,6.10
2023-02-11T01:23:45.246Z,6.00
2023-02-11T01:26:14.176Z,5.90
2023-02-11T01:28:43.245Z,5.80
2023-02-11T01:31:10.159Z,5.70
2023-02-11T01:33:39.376Z,5.60
2023-02-11T01:36:07.488Z,5.60
2023-02-11T01:38:35.104Z,5.60
2023-02-11T01:41:05.125Z,5.50
2023-02-11T01:43:38.469Z,5.50
2023-02-11T01:46:17.511Z,5.50
2023-02-11T01:48:49.271Z,5.50
2023-02-11T01:51:22.269Z,5.50
2023-02-11T01:54:09.155Z,5.60
2023-02-11T01:56:58.070Z,5.70
2023-02-11T01:59:31.702Z,5.80
2023-02-11T02:02:07.275Z,5.80
2023-02-11T02:04:42.114Z,5.80
2023-02-11T02:07:14.524Z,5.90
2023-02-11T02:09:46.209Z,6.00
2023-02-11T02:12:15.068Z,6.10
2023-02-11T02:14:44.071Z,6.10
2023-02-11T02:17:25.151Z,6.10
2023-02-11T02:20:14.662Z,6.10
2023-02-11T02:22:58.035Z,6.30
2023-02-11T02:25:27.743Z,6.30
2023-02-11T02:28:33.793Z,6.40
2023-02-11T02:31:19.231Z,6.40
2023-02-11T02:34:01.413Z,6.40
2023-02-11T02:36:48.467Z,6.40
2023-02-11T02:39:36.444Z,6.30
2023-02-11T02:42:07.102Z,6.20
2023-02-11T02:44:36.470Z,6.20
2023-02-11T02:47:03.330Z,6.20
2023-02-11T02:49:30.036Z,6.20
2023-02-11T02:52:34.919Z,6.20
2023-02-11T02:55:22.398Z,6.10
2023-02-11T02:58:25.270Z,6.00
2023-02-11T03:01:37.453Z,6.10
2023-02-11T03:04:10.363Z,6.10
2023-02-11T03:06:49.830Z,6.10
2023-02-11T03:09:26.172Z,6.10
2023-02-11T03:11:56.035Z,6.20
2023-02-11T03:14:28.259Z,6.20
2023-02-11T03:17:00.664Z,6.10
2023-02-11T03:19:34.564Z,6.20
2023-02-11T03:22:05.311Z,6.20
2023-02-11T03:24:36.218Z,6.20
2023-02-11T03:27:25.816Z,6.20
2023-02-11T03:29:56.365Z,6.20
2023-02-11T03:32:31.868Z,6.30
2023-02-11T03:35:19.280Z,6.30
2023-02-11T03:38:02.588Z,6.30
2023-02-11T03:40:35.162Z,6.30
2023-02-11T03:43:17.269Z,6.30
2023-02-11T03:45:48.660Z,6.30
2023-02-11T03:48:23.489Z,6.40
2023-02-11T03:50:56.545Z,6.30
2023-02-11T03:53:23.460Z,6.30
2023-02-11T03:55:53.130Z,6.30
2023-02-11T03:58:20.029Z,6.30
2023-02-11T04:00:46.913Z,6.40
2023-02-11T04:03:19.004Z,6.40
2023-02-11T04:05:48.788Z,6.40
2023-02-11T04:08:15.715Z,6.40
2023-02-11T04:10:42.353Z,6.40
2023-02-11T04:13:09.021Z,6.40
2023-02-11T04:15:38.257Z,6.40
2023-02-11T04:18:07.111Z,6.40
2023-02-11T04:20:33.846Z,6.40
2023-02-11T04:23:00.683Z,6.40
2023-02-11T04:25:29.867Z,6.30
2023-02-11T04:27:56.601Z,6.30
2023-02-11T04:30:28.004Z,6.40
2023-02-11T04:32:56.905Z,6.40
2023-02-11T04:35:25.793Z,6.40
2023-02-11T04:37:52.425Z,6.40
2023-02-11T04:40:19.246Z,6.40
2023-02-11T04:42:50.611Z,6.40
2023-02-11T04:45:22.118Z,6.40
2023-02-11T04:47:53.465Z,6.50
2023-02-11T04:50:20.267Z,6.50
2023-02-11T04:52:49.407Z,6.50
2023-02-11T04:55:16.162Z,6.50
2023-02-11T04:57:42.901Z,6.40
2023-02-11T05:00:12.437Z,6.40
2023-02-11T05:02:39.084Z,6.50
2023-02-11T05:05:08.915Z,6.40
2023-02-11T05:07:40.285Z,6.40
2023-02-11T05:10:06.998Z,6.40
2023-02-11T05:12:33.642Z,6.40
2023-02-11T05:15:02.552Z,6.40
2023-02-11T05:17:31.438Z,6.50
2023-02-11T05:19:58.081Z,6.50
2023-02-11T05:22:24.830Z,6.50
2023-02-11T05:24:51.473Z,6.50
2023-02-11T05:27:20.326Z,6.40
2023-02-11T05:29:46.974Z,6.40
2023-02-11T05:32:15.919Z,6.40
2023-02-11T05:34:44.885Z,6.40
2023-02-11T05:37:11.575Z,6.50
2023-02-11T05:39:38.340Z,6.50
2023-02-11T05:42:05.073Z,6.40
2023-02-11T05:44:31.728Z,6.40
2023-02-11T05:46:58.407Z,6.50
2023-02-11T05:49:25.204Z,6.40
2023-02-11T05:51:53.973Z,6.40
2023-02-11T05:54:22.877Z,6.40
2023-02-11T05:56:49.534Z,6.50
2023-02-11T05:59:18.553Z,6.40
2023-02-11T06:01:45.221Z,6.40
2023-02-11T06:04:11.890Z,6.30
2023-02-11T06:06:38.620Z,6.40
2023-02-11T06:09:07.553Z,6.40
2023-02-11T06:11:34.209Z,6.40
2023-02-11T06:14:03.815Z,6.40
2023-02-11T06:16:30.593Z,6.50
2023-02-11T06:18:57.360Z,6.50
2023-02-11T06:21:36.364Z,6.50
2023-02-11T06:24:09.383Z,6.50
2023-02-11T06:26:36.102Z,6.50
2023-02-11T06:29:05.298Z,6.50
2023-02-11T06:31:32.093Z,6.40
2023-02-11T06:33:59.291Z,6.50
2023-02-11T06:36:26.059Z,6.50
2023-02-11T06:38:52.869Z,6.60
2023-02-11T06:41:20.342Z,6.60
2023-02-11T06:43:47.735Z,6.60
2023-02-11T06:46:14.747Z,6.60
2023-02-11T06:48:43.773Z,6.60
2023-02-11T06:51:16.108Z,6.60
2023-02-11T06:53:46.155Z,6.60
2023-02-11T06:56:18.286Z,6.60
2023-02-11T06:58:45.181Z,6.60
2023-02-11T07:01:16.988Z,6.60
2023-02-11T07:03:45.196Z,6.60
2023-02-11T07:06:17.694Z,6.60
2023-02-11T07:08:45.909Z,6.60
2023-02-11T07:11:24.243Z,6.50
2023-02-11T07:13:52.992Z,6.60
2023-02-11T07:16:20.075Z,6.50
2023-02-11T07:18:50.214Z,6.50
2023-02-11T07:21:24.769Z,6.50
2023-02-11T07:23:51.728Z,6.50
2023-02-11T07:26:25.830Z,6.50
2023-02-11T07:28:55.884Z,6.50
2023-02-11T07:31:26.281Z,6.50
2023-02-11T07:33:54.712Z,6.40
2023-02-11T07:36:22.358Z,6.50
2023-02-11T07:38:51.539Z,6.50
2023-02-11T07:41:22.920Z,6.50
2023-02-11T07:43:49.854Z,6.50
2023-02-11T07:46:20.055Z,6.50
2023-02-11T07:48:47.235Z,6.50
2023-02-11T07:51:17.195Z,6.50
2023-02-11T07:53:44.424Z,6.50
2023-02-11T07:56:15.361Z,6.50
2023-02-11T07:58:43.109Z,6.60
2023-02-11T08:01:13.709Z,6.60
2023-02-11T08:03:43.468Z,6.60
2023-02-11T08:06:13.616Z,6.60
2023-02-11T08:08:43.336Z,6.60
2023-02-11T08:11:16.572Z,6.70
2023-02-11T08:13:43.516Z,6.70
2023-02-11T08:16:21.786Z,6.70
2023-02-11T08:18:49.200Z,6.70
2023-02-11T08:21:16.300Z,6.70
2023-02-11T08:23:49.668Z,6.70
2023-02-11T08:26:23.961Z,6.70
2023-02-11T08:28:52.795Z,6.60
2023-02-11T08:31:23.939Z,6.70
2023-02-11T08:33:54.504Z,6.80
2023-02-11T08:36:25.364Z,6.80
2023-02-11T08:38:57.075Z,6.90
2023-02-11T08:41:29.585Z,6.80
2023-02-11T08:43:56.297Z,6.90
2023-02-11T08:46:22.971Z,6.90
2023-02-11T08:48:49.748Z,6.90
2023-02-11T08:51:21.895Z,6.90
2023-02-11T08:53:49.376Z,7.00
2023-02-11T08:56:20.370Z,6.90
2023-02-11T08:58:47.589Z,6.90
2023-02-11T09:01:22.650Z,7.00
2023-02-11T09:03:49.918Z,6.90
2023-02-11T09:06:19.509Z,6.90
2023-02-11T09:08:53.172Z,7.00
2023-02-11T09:11:22.330Z,7.00
2023-02-11T09:13:54.164Z,7.00
2023-02-11T09:16:23.916Z,7.00
2023-02-11T09:18:53.814Z,7.10
2023-02-11T09:21:20.788Z,7.10
2023-02-11T09:23:50.247Z,7.10
2023-02-11T09:26:21.000Z,7.10
2023-02-11T09:28:48.420Z,7.20
2023-02-11T09:31:24.733Z,7.20
2023-02-11T09:33:54.494Z,7.30
2023-02-11T09:36:26.495Z,7.20
2023-02-11T09:38:57.419Z,7.30
2023-02-11T09:41:24.064Z,7.30
2023-02-11T09:43:56.910Z,7.30
2023-02-11T09:46:31.981Z,7.40
2023-02-11T09:49:04.658Z,7.40
2023-02-11T09:51:51.557Z,7.40
2023-02-11T09:54:34.028Z,7.50
2023-02-11T09:57:00.746Z,7.50
2023-02-11T09:59:29.716Z,7.50
2023-02-11T10:02:04.242Z,7.60
2023-02-11T10:05:22.294Z,7.60
2023-02-11T10:07:58.365Z,7.60
2023-02-11T10:10:52.703Z,7.60
2023-02-11T10:13:39.718Z,7.50
2023-02-11T10:16:54.699Z,7.50
2023-02-11T10:19:47.192Z,7.50
2023-02-11T10:22:26.961Z,7.50
2023-02-11T10:25:00.191Z,7.40
2023-02-11T10:27:33.987Z,7.50
2023-02-11T10:30:19.133Z,7.50
2023-02-11T10:32:48.620Z,7.50
2023-02-11T10:35:26.338Z,7.50
2023-02-11T10:37:55.669Z,7.50
2023-02-11T10:40:29.954Z,7.60
2023-02-11T10:43:02.823Z,7.60
2023-02-11T10:45:51.627Z,7.60
2023-02-11T10:48:39.110Z,7.60
2023-02-11T10:51:14.700Z,7.50
2023-02-11T10:53:41.336Z,7.50
2023-02-11T10:56:12.314Z,7.60
2023-02-11T10:58:49.731Z,7.60
2023-02-11T11:01:24.841Z,7.50
2023-02-11T11:03:52.726Z,7.50
2023-02-11T11:06:35.718Z,7.50
2023-02-11T11:09:02.526Z,7.60
2023-02-11T11:11:33.610Z,7.50
2023-02-11T11:14:01.577Z,7.50
2023-02-11T11:16:36.206Z,7.60
2023-02-11T11:19:09.157Z,7.70
2023-02-11T11:21:47.408Z,7.70
2023-02-11T11:24:27.639Z,7.60
2023-02-11T11:26:58.061Z,7.70
2023-02-11T11:29:28.714Z,7.70
2023-02-11T11:32:04.200Z,7.80
2023-02-11T11:34:56.667Z,7.80
2023-02-11T11:37:34.788Z,7.70
2023-02-11T11:40:28.555Z,7.70
2023-02-11T11:43:22.601Z,7.80
2023-02-11T11:45:57.443Z,7.80
2023-02-11T11:48:41.329Z,7.80
2023-02-11T11:51:11.700Z,7.80
2023-02-11T11:53:53.424Z,7.80
2023-02-11T11:56:28.027Z,7.80
2023-02-11T11:59:00.436Z,7.80
2023-02-11T12:01:47.647Z,7.70
2023-02-11T12:04:23.153Z,7.70
2023-02-11T12:07:01.511Z,7.80
2023-02-11T12:09:49.748Z,7.60
2023-02-11T12:12:29.302Z,7.70
2023-02-11T12:15:16.241Z,7.70
2023-02-11T12:18:06.904Z,7.80
2023-02-11T12:20:58.160Z,7.80
2023-02-11T12:23:52.892Z,7.90
2023-02-11T12:26:26.455Z,7.90
2023-02-11T12:28:58.997Z,7.90
2023-02-11T12:31:53.506Z,7.90
2023-02-11T12:34:38.625Z,7.90
2023-02-11T12:37:33.440Z,8.00
2023-02-11T12:40:28.568Z,7.90
2023-02-11T12:43:25.574Z,7.80
2023-02-11T12:46:44.304Z,7.80
2023-02-11T12:49:52.280Z,7.80
2023-02-11T12:52:45.887Z,7.90
2023-02-11T12:55:26.793Z,7.80
2023-02-11T12:57:58.882Z,7.90
2023-02-11T13:00:48.311Z,7.90
2023-02-11T13:03:33.075Z,7.90
2023-02-11T13:06:08.386Z,8.00
2023-02-11T13:08:41.217Z,7.90
2023-02-11T13:11:17.495Z,8.00
2023-02-11T13:13:56.144Z,8.00
2023-02-11T13:16:35.556Z,8.00
2023-02-11T13:19:15.479Z,8.00
2023-02-11T13:22:03.292Z,8.00
2023-02-11T13:24:53.699Z,8.00
2023-02-11T13:28:06.950Z,8.00
2023-02-11T13:30:35.174Z,8.10
2023-02-11T13:33:04.414Z,8.00
2023-02-11T13:35:39.980Z,8.10
2023-02-11T13:38:21.643Z,8.10
2023-02-11T13:41:04.698Z,8.10
2023-02-11T13:43:34.045Z,8.20
2023-02-11T13:46:10.390Z,8.10
2023-02-11T13:48:52.540Z,8.10
2023-02-11T13:51:37.354Z,8.20
2023-02-11T13:54:05.948Z,8.20
2023-02-11T13:56:46.298Z,8.20
2023-02-11T13:59:24.956Z,8.20
2023-02-11T14:02:11.599Z,8.30
2023-02-11T14:05:23.086Z,8.20
2023-02-11T14:08:29.670Z,8.30
2023-02-11T14:11:12.236Z,8.30
2023-02-11T14:13:48.027Z,8.30
2023-02-11T14:16:17.064Z,8.40
2023-02-11T14:18:55.924Z,8.30
2023-02-11T14:21:32.265Z,8.40
2023-02-11T14:24:01.759Z,8.30
2023-02-11T14:26:53.236Z,8.30
2023-02-11T14:29:22.040Z,8.30
2023-02-11T14:32:06.129Z,8.40
2023-02-11T14:34:57.133Z,8.40
2023-02-11T14:37:50.888Z,8.40
2023-02-11T14:40:38.840Z,8.60
2023-02-11T14:43:16.699Z,8.60
2023-02-11T14:45:48.021Z,8.60
2023-02-11T14:48:21.204Z,8.70
2023-02-11T14:51:10.560Z,8.60
2023-02-11T14:53:40.583Z,8.70
2023-02-11T14:56:27.867Z,8.70
2023-02-11T14:58:57.780Z,8.90
2023-02-11T15:01:40.500Z,8.80
2023-02-11T15:04:27.183Z,8.80
2023-02-11T15:06:59.253Z,8.80
2023-02-11T15:09:42.276Z,8.80
2023-02-11T15:12:23.733Z,8.60
2023-02-11T15:14:53.174Z,8.60
2023-02-11T15:17:24.544Z,8.70
2023-02-11T15:19:55.171Z,8.70
2023-02-11T15:22:29.740Z,8.80
2023-02-11T15:25:06.867Z,8.90
2023-02-11T15:27:41.547Z,8.80
2023-02-11T15:30:30.488Z,8.80
2023-02-11T15:33:00.477Z,8.80
2023-02-11T15:35:28.973Z,8.70
2023-02-11T15:37:57.437Z,8.80
2023-02-11T15:40:32.356Z,8.80
2023-02-11T15:43:04.120Z,8.80
2023-02-11T15:45:33.694Z,8.70
2023-02-11T15:48:12.576Z,8.70
2023-02-11T15:50:43.458Z,8.70
2023-02-11T15:53:30.161Z,8.60
2023-02-11T15:56:29.728Z,8.60
2023-02-11T15:59:02.346Z,8.60
2023-02-11T16:01:34.193Z,8.60
2023-02-11T16:04:02.401Z,8.50
2023-02-11T16:06:39.026Z,8.50
2023-02-11T16:09:08.814Z,8.50
2023-02-11T16:11:53.656Z,8.40
2023-02-11T16:14:21.806Z,8.50
2023-02-11T16:16:51.075Z,8.40
2023-02-11T16:19:20.289Z,8.40
2023-02-11T16:21:49.606Z,8.40
2023-02-11T16:24:21.493Z,8.40
2023-02-11T16:26:55.390Z,8.40
2023-02-11T16:29:30.038Z,8.40
2023-02-11T16:32:19.479Z,8.30
2023-02-11T16:34:46.473Z,8.40
2023-02-11T16:37:13.138Z,8.40
2023-02-11T16:39:39.824Z,8.30
2023-02-11T16:42:09.457Z,8.30
2023-02-11T16:44:38.578Z,8.30
2023-02-11T16:47:10.702Z,8.30
2023-02-11T16:49:40.581Z,8.30
2023-02-11T16:52:12.654Z,8.20
2023-02-11T16:54:41.664Z,8.20
2023-02-11T16:57:17.415Z,8.10
2023-02-11T16:59:47.482Z,8.10
2023-02-11T17:02:23.632Z,8.10
2023-02-11T17:04:52.707Z,8.00
2023-02-11T17:07:22.144Z,8.00
2023-02-11T17:09:48.795Z,8.00
2023-02-11T17:12:17.625Z,8.00
2023-02-11T17:14:46.599Z,8.00
2023-02-11T17:17:15.660Z,8.00
2023-02-11T17:19:42.313Z,8.00
2023-02-11T17:22:10.905Z,8.00
2023-02-11T17:24:40.596Z,8.00
2023-02-11T17:27:11.232Z,8.00
2023-02-11T17:29:40.502Z,8.00
2023-02-11T17:32:09.795Z,8.00
2023-02-11T17:34:36.512Z,7.90
2023-02-11T17:37:08.884Z,7.90
2023-02-11T17:39:39.806Z,7.90
2023-02-11T17:42:11.835Z,7.90
2023-02-11T17:44:43.302Z,7.90
2023-02-11T17:47:09.986Z,7.90
2023-02-11T17:49:36.705Z,7.90
2023-02-11T17:52:03.859Z,7.90
2023-02-11T17:54:30.563Z,7.80
2023-02-11T17:56:58.392Z,7.90
2023-02-11T17:59:31.565Z,7.80
2023-02-11T18:01:58.218Z,7.90
2023-02-11T18:04:27.292Z,7.90
2023-02-11T18:06:53.943Z,7.90
2023-02-11T18:09:21.132Z,7.90
2023-02-11T18:11:48.493Z,7.90
2023-02-11T18:14:18.022Z,7.90
2023-02-11T18:16:45.847Z,7.90
2023-02-11T18:19:12.975Z,7.80
2023-02-11T18:21:39.735Z,7.80
2023-02-11T18:24:08.740Z,7.80
2023-02-11T18:26:36.170Z,7.80
2023-02-11T18:29:03.857Z,7.80
2023-02-11T18:31:30.660Z,7.80
2023-02-11T18:33:57.816Z,7.80
2023-02-11T18:36:26.673Z,7.90
2023-02-11T18:38:54.203Z,7.90
2023-02-11T18:41:21.339Z,7.90
2023-02-11T18:43:49.055Z,7.80
2023-02-11T18:46:16.464Z,7.90
2023-02-11T18:48:44.758Z,7.90
2023-02-11T18:51:14.652Z,7.90
2023-02-11T18:53:41.685Z,7.90
2023-02-11T18:56:15.470Z,8.00
2023-02-11T18:58:42.171Z,7.90
2023-02-11T19:01:19.019Z,7.80
2023-02-11T19:03:48.328Z,7.80
2023-02-11T19:06:20.961Z,7.90
2023-02-11T19:08:47.956Z,7.90
2023-02-11T19:11:19.765Z,7.90
2023-02-11T19:13:52.374Z,7.90
2023-02-11T19:16:23.900Z,7.90
2023-02-11T19:18:50.549Z,7.80
2023-02-11T19:21:20.583Z,7.90
2023-02-11T19:23:49.492Z,7.90
2023-02-11T19:26:16.188Z,7.90
2023-02-11T19:28:43.028Z,7.90
2023-02-11T19:31:12.481Z,7.90
2023-02-11T19:33:43.803Z,8.00
2023-02-11T19:36:16.289Z,8.00
2023-02-11T19:38:44.214Z,8.00
2023-02-11T19:41:18.917Z,7.90
2023-02-11T19:43:52.594Z,8.00
2023-02-11T19:46:25.246Z,8.00
2023-02-11T19:48:53.081Z,7.90
2023-02-11T19:51:20.171Z,8.00
2023-02-11T19:53:48.040Z,8.00
2023-02-11T19:56:20.920Z,8.00
2023-02-11T19:58:55.045Z,8.00
2023-02-11T20:01:23.396Z,8.00
2023-02-11T20:03:57.724Z,8.00
2023-02-11T20:06:29.847Z,8.00
2023-02-11T20:09:00.821Z,8.00
2023-02-11T20:11:29.826Z,8.10
2023-02-11T20:14:00.756Z,8.10
2023-02-11T20:16:47.460Z,8.00
2023-02-11T20:19:17.984Z,8.00
2023-02-11T20:21:47.226Z,8.00
2023-02-11T20:24:17.376Z,8.00
2023-02-11T20:26:45.209Z,8.00
2023-02-11T20:29:12.100Z,8.00
2023-02-11T20:31:38.989Z,8.00
2023-02-11T20:34:07.984Z,8.00
2023-02-11T20:36:37.500Z,8.00
2023-02-11T20:39:10.189Z,8.00
2023-02-11T20:41:39.854Z,8.10
2023-02-11T20:44:08.446Z,8.10
2023-02-11T20:46:41.984Z,8.00
2023-02-11T20:49:18.723Z,8.00
2023-02-11T20:51:47.633Z,8.00
2023-02-11T20:54:19.454Z,8.00
2023-02-11T20:56:48.201Z,7.90
2023-02-11T20:59:16.775Z,7.90
2023-02-11T21:01:49.028Z,7.90
2023-02-11T21:04:20.513Z,8.00
2023-02-11T21:06:53.239Z,8.00
2023-02-11T21:09:24.393Z,7.90
2023-02-11T21:11:52.591Z,8.00
2023-02-11T21:14:22.149Z,8.00
2023-02-11T21:16:49.762Z,8.00
2023-02-11T21:19:16.941Z,7.90
2023-02-11T21:21:44.214Z,7.90
2023-02-11T21:24:11.818Z,7.90
2023-02-11T21:26:39.363Z,7.90
2023-02-11T21:29:09.771Z,7.90
2023-02-11T21:31:37.540Z,7.90
2023-02-11T21:34:05.492Z,8.00
2023-02-11T21:36:32.437Z,8.00
2023-02-11T21:39:00.136Z,8.00
2023-02-11T21:41:29.183Z,8.00
2023-02-11T21:43:56.781Z,8.10
2023-02-11T21:46:23.650Z,8.00
2023-02-11T21:48:53.018Z,8.00
2023-02-11T21:51:22.339Z,8.10
2023-02-11T21:53:58.871Z,8.10
2023-02-11T21:56:28.774Z,8.00
2023-02-11T21:59:00.411Z,8.00
2023-02-11T22:01:32.974Z,7.90
2023-02-11T22:04:00.082Z,7.90
2023-02-11T22:06:31.311Z,8.00
2023-02-11T22:08:58.896Z,8.00
2023-02-11T22:11:25.574Z,7.90
2023-02-11T22:13:56.208Z,8.00
2023-02-11T22:16:23.735Z,7.90
2023-02-11T22:18:51.321Z,7.90
2023-02-11T22:21:22.114Z,8.00
2023-02-11T22:23:49.518Z,8.00
2023-02-11T22:26:22.381Z,7.90
2023-02-11T22:28:50.299Z,7.90
2023-02-11T22:31:24.661Z,7.90
2023-02-11T22:33:51.512Z,8.00
2023-02-11T22:36:29.001Z,8.00
2023-02-11T22:38:56.155Z,8.00
2023-02-11T22:41:25.299Z,7.90
2023-02-11T22:43:56.355Z,7.80
2023-02-11T22:46:23.152Z,7.90
2023-02-11T22:48:50.193Z,8.00
2023-02-11T22:51:22.994Z,7.90
2023-02-11T22:53:54.060Z,7.90
2023-02-11T22:56:21.319Z,7.90
2023-02-11T22:58:48.373Z,7.90
2023-02-11T23:01:15.539Z,7.80
2023-02-11T23:03:42.291Z,7.90
2023-02-11T23:06:10.388Z,7.90
2023-02-11T23:08:40.788Z,7.90
2023-02-11T23:11:12.559Z,7.90
2023-02-11T23:13:42.809Z,7.90
2023-02-11T23:16:16.988Z,7.90
2023-02-11T23:18:44.844Z,7.90
2023-02-11T23:21:21.507Z,7.90
2023-02-11T23:23:49.545Z,7.90
2023-02-11T23:26:19.906Z,7.90
2023-02-11T23:28:46.656Z,7.90
2023-02-11T23:31:26.015Z,8.00
2023-02-11T23:33:55.582Z,7.90
2023-02-11T23:36:23.078Z,7.80
2023-02-11T23:38:52.326Z,7.80
2023-02-11T23:41:23.119Z,7.80
2023-02-11T23:43:57.498Z,7.90
2023-02-11T23:46:27.533Z,7.90
2023-02-11T23:48:54.567Z,7.90
2023-02-11T23:51:21.990Z,7.80
2023-02-11T23:53:49.606Z,7.80
2023-02-11T23:56:22.199Z,7.70
2023-02-11T23:58:50.341Z,7.70
